sensor_id;sensor_type;location;lat;lon;timestamp;pressure;altitude;pressure_sealevel;temperature
11792;BMP180;5953;52.372;9.918;2024-02-14T00:01:22;100870.00;;;11.50
11792;BMP180;5953;52.372;9.918;2024-02-14T00:03:51;100839.00;;;11.40
11792;BMP180;5953;52.372;9.918;2024-02-14T00:06:23;100857.00;;;11.40
11792;BMP180;5953;52.372;9.918;2024-02-14T00:08:51;100835.00;;;11.40
11792;BMP180;5953;52.372;9.918;2024-02-14T00:11:19;100875.00;;;11.40
11792;BMP180;5953;52.372;9.918;2024-02-14T00:13:47;100849.00;;;11.40
11792;BMP180;5953;52.372;9.918;2024-02-14T00:16:20;100868.00;;;11.30
11792;BMP180;5953;52.372;9.918;2024-02-14T00:19:05;100849.00;;;11.40
11792;BMP180;5953;52.372;9.918;2024-02-14T00:21:33;100816.00;;;11.20
11792;BMP180;5953;52.372;9.918;2024-02-14T00:24:03;100844.00;;;11.20
11792;BMP180;5953;52.372;9.918;2024-02-14T00:26:31;100838.00;;;11.20
11792;BMP180;5953;52.372;9.918;2024-02-14T00:28:59;100856.00;;;11.30
11792;BMP180;5953;52.372;9.918;2024-02-14T00:31:27;100855.00;;;11.50
11792;BMP180;5953;52.372;9.918;2024-02-14T00:33:55;100838.00;;;11.50
11792;BMP180;5953;52.372;9.918;2024-02-14T00:36:25;100860.00;;;11.40
11792;BMP180;5953;52.372;9.918;2024-02-14T00:38:53;100845.00;;;11.40
11792;BMP180;5953;52.372;9.918;2024-02-14T00:41:21;100832.00;;;11.20
11792;BMP180;5953;52.372;9.918;2024-02-14T00:43:49;100843.00;;;11.10
11792;BMP180;5953;52.372;9.918;2024-02-14T00:46:17;100798.00;;;11.30
11792;BMP180;5953;52.372;9.918;2024-02-14T00:48:45;100801.00;;;11.40
11792;BMP180;5953;52.372;9.918;2024-02-14T00:51:13;100827.00;;;11.50
11792;BMP180;5953;52.372;9.918;2024-02-14T00:53:43;100823.00;;;11.50
11792;BMP180;5953;52.372;9.918;2024-02-14T00:56:11;100786.00;;;11.40
11792;BMP180;5953;52.372;9.918;2024-02-14T00:58:48;100803.00;;;11.40
11792;BMP180;5953;52.372;9.918;2024-02-14T01:01:18;100817.00;;;11.20
11792;BMP180;5953;52.372;9.918;2024-02-14T01:03:46;100815.00;;;11.30
11792;BMP180;5953;52.372;9.918;2024-02-14T01:06:14;100817.00;;;11.30
11792;BMP180;5953;52.372;9.918;2024-02-14T01:08:44;100811.00;;;11.20
11792;BMP180;5953;52.372;9.918;2024-02-14T01:11:12;100800.00;;;11.20
11792;BMP180;5953;52.372;9.918;2024-02-14T01:13:40;100796.00;;;11.20
11792;BMP180;5953;52.372;9.918;2024-02-14T01:16:08;100796.00;;;11.00
11792;BMP180;5953;52.372;9.918;2024-02-14T01:18:36;100800.00;;;11.10
11792;BMP180;5953;52.372;9.918;2024-02-14T01:21:04;100795.00;;;11.30
11792;BMP180;5953;52.372;9.918;2024-02-14T01:23:33;100790.00;;;11.30
11792;BMP180;5953;52.372;9.918;2024-02-14T01:26:03;100795.00;;;11.30
11792;BMP180;5953;52.372;9.918;2024-02-14T01:28:31;100777.00;;;11.40
11792;BMP180;5953;52.372;9.918;2024-02-14T01:30:59;100784.00;;;11.50
11792;BMP180;5953;52.372;9.918;2024-02-14T01:33:27;100784.00;;;11.40
11792;BMP180;5953;52.372;9.918;2024-02-14T01:35:57;100788.00;;;11.30
11792;BMP180;5953;52.372;9.918;2024-02-14T01:38:25;100781.00;;;11.30
11792;BMP180;5953;52.372;9.918;2024-02-14T01:40:53;100773.00;;;11.30
11792;BMP180;5953;52.372;9.918;2024-02-14T01:43:22;100773.00;;;11.40
11792;BMP180;5953;52.372;9.918;2024-02-14T01:45:50;100775.00;;;11.40
11792;BMP180;5953;52.372;9.918;2024-02-14T01:48:17;100769.00;;;11.40
11792;BMP180;5953;52.372;9.918;2024-02-14T01:50:46;100766.00;;;11.40
11792;BMP180;5953;52.372;9.918;2024-02-14T01:53:14;100761.00;;;11.50
11792;BMP180;5953;52.372;9.918;2024-02-14T01:55:42;100772.00;;;11.40
11792;BMP180;5953;52.372;9.918;2024-02-14T01:58:11;100761.00;;;11.50
11792;BMP180;5953;52.372;9.918;2024-02-14T02:00:41;100758.00;;;11.40
11792;BMP180;5953;52.372;9.918;2024-02-14T02:03:09;100758.00;;;11.40
11792;BMP180;5953;52.372;9.918;2024-02-14T02:05:37;100747.00;;;11.40
11792;BMP180;5953;52.372;9.918;2024-02-14T02:08:07;100748.00;;;11.40
11792;BMP180;5953;52.372;9.918;2024-02-14T02:10:35;100756.00;;;11.30
11792;BMP180;5953;52.372;9.918;2024-02-14T02:13:04;100739.00;;;11.50
11792;BMP180;5953;52.372;9.918;2024-02-14T02:15:31;100756.00;;;11.50
11792;BMP180;5953;52.372;9.918;2024-02-14T02:18:01;100746.00;;;11.40
11792;BMP180;5953;52.372;9.918;2024-02-14T02:20:32;100734.00;;;11.50
11792;BMP180;5953;52.372;9.918;2024-02-14T02:23:02;100740.00;;;11.60
11792;BMP180;5953;52.372;9.918;2024-02-14T02:25:31;100731.00;;;11.60
11792;BMP180;5953;52.372;9.918;2024-02-14T02:27:59;100737.00;;;11.70
11792;BMP180;5953;52.372;9.918;2024-02-14T02:30:26;100735.00;;;11.60
11792;BMP180;5953;52.372;9.918;2024-02-14T02:32:54;100727.00;;;11.70
11792;BMP180;5953;52.372;9.918;2024-02-14T02:35:22;100730.00;;;11.70
11792;BMP180;5953;52.372;9.918;2024-02-14T02:37:51;100729.00;;;11.70
11792;BMP180;5953;52.372;9.918;2024-02-14T02:40:20;100723.00;;;11.70
11792;BMP180;5953;52.372;9.918;2024-02-14T02:42:48;100726.00;;;11.70
11792;BMP180;5953;52.372;9.918;2024-02-14T02:45:17;100718.00;;;11.50
11792;BMP180;5953;52.372;9.918;2024-02-14T02:47:45;100716.00;;;11.60
11792;BMP180;5953;52.372;9.918;2024-02-14T02:50:14;100716.00;;;11.60
11792;BMP180;5953;52.372;9.918;2024-02-14T02:52:42;100699.00;;;11.60
11792;BMP180;5953;52.372;9.918;2024-02-14T02:55:10;100700.00;;;11.70
11792;BMP180;5953;52.372;9.918;2024-02-14T02:57:40;100701.00;;;11.70
11792;BMP180;5953;52.372;9.918;2024-02-14T03:00:09;100697.00;;;11.70
11792;BMP180;5953;52.372;9.918;2024-02-14T03:02:39;100706.00;;;11.70
11792;BMP180;5953;52.372;9.918;2024-02-14T03:05:11;100691.00;;;11.80
11792;BMP180;5953;52.372;9.918;2024-02-14T03:07:45;100692.00;;;11.90
11792;BMP180;5953;52.372;9.918;2024-02-14T03:10:15;100692.00;;;11.90
11792;BMP180;5953;52.372;9.918;2024-02-14T03:12:46;100679.00;;;11.90
11792;BMP180;5953;52.372;9.918;2024-02-14T03:15:15;100686.00;;;11.70
11792;BMP180;5953;52.372;9.918;2024-02-14T03:17:43;100683.00;;;11.80
11792;BMP180;5953;52.372;9.918;2024-02-14T03:20:11;100677.00;;;11.90
11792;BMP180;5953;52.372;9.918;2024-02-14T03:22:44;100677.00;;;11.80
11792;BMP180;5953;52.372;9.918;2024-02-14T03:25:16;100678.00;;;11.70
11792;BMP180;5953;52.372;9.918;2024-02-14T03:27:44;100675.00;;;11.80
11792;BMP180;5953;52.372;9.918;2024-02-14T03:30:15;100669.00;;;11.60
11792;BMP180;5953;52.372;9.918;2024-02-14T03:32:45;100664.00;;;11.50
11792;BMP180;5953;52.372;9.918;2024-02-14T03:35:13;100663.00;;;11.50
11792;BMP180;5953;52.372;9.918;2024-02-14T03:37:41;100665.00;;;11.50
11792;BMP180;5953;52.372;9.918;2024-02-14T03:40:10;100655.00;;;11.60
11792;BMP180;5953;52.372;9.918;2024-02-14T03:42:38;100646.00;;;11.50
11792;BMP180;5953;52.372;9.918;2024-02-14T03:45:07;100653.00;;;11.60
11792;BMP180;5953;52.372;9.918;2024-02-14T03:47:37;100655.00;;;11.50
11792;BMP180;5953;52.372;9.918;2024-02-14T03:50:07;100638.00;;;11.30
11792;BMP180;5953;52.372;9.918;2024-02-14T03:52:35;100645.00;;;11.50
11792;BMP180;5953;52.372;9.918;2024-02-14T03:55:05;100640.00;;;11.60
11792;BMP180;5953;52.372;9.918;2024-02-14T03:57:33;100634.00;;;11.60
11792;BMP180;5953;52.372;9.918;2024-02-14T04:00:06;100644.00;;;11.40
11792;BMP180;5953;52.372;9.918;2024-02-14T04:02:38;100632.00;;;11.70
11792;BMP180;5953;52.372;9.918;2024-02-14T04:05:07;100639.00;;;11.60
11792;BMP180;5953;52.372;9.918;2024-02-14T04:07:36;100627.00;;;11.50
11792;BMP180;5953;52.372;9.918;2024-02-14T04:10:05;100628.00;;;11.50
11792;BMP180;5953;52.372;9.918;2024-02-14T04:12:33;100625.00;;;11.50
11792;BMP180;5953;52.372;9.918;2024-02-14T04:15:01;100624.00;;;11.40
11792;BMP180;5953;52.372;9.918;2024-02-14T04:17:29;100620.00;;;11.50
11792;BMP180;5953;52.372;9.918;2024-02-14T04:19:58;100633.00;;;11.40
11792;BMP180;5953;52.372;9.918;2024-02-14T04:22:26;100618.00;;;11.50
11792;BMP180;5953;52.372;9.918;2024-02-14T04:24:54;100619.00;;;11.50
11792;BMP180;5953;52.372;9.918;2024-02-14T04:27:22;100614.00;;;11.30
11792;BMP180;5953;52.372;9.918;2024-02-14T04:29:50;100624.00;;;11.50
11792;BMP180;5953;52.372;9.918;2024-02-14T04:32:18;100621.00;;;11.50
11792;BMP180;5953;52.372;9.918;2024-02-14T04:34:46;100607.00;;;11.50
11792;BMP180;5953;52.372;9.918;2024-02-14T04:37:17;100612.00;;;11.30
11792;BMP180;5953;52.372;9.918;2024-02-14T04:39:46;100612.00;;;11.10
11792;BMP180;5953;52.372;9.918;2024-02-14T04:42:14;100617.00;;;11.50
11792;BMP180;5953;52.372;9.918;2024-02-14T04:44:42;100619.00;;;11.40
11792;BMP180;5953;52.372;9.918;2024-02-14T04:47:10;100617.00;;;11.70
11792;BMP180;5953;52.372;9.918;2024-02-14T04:49:38;100610.00;;;11.60
11792;BMP180;5953;52.372;9.918;2024-02-14T04:52:05;100623.00;;;11.30
11792;BMP180;5953;52.372;9.918;2024-02-14T04:54:35;100609.00;;;11.30
11792;BMP180;5953;52.372;9.918;2024-02-14T04:57:03;100605.00;;;11.30
11792;BMP180;5953;52.372;9.918;2024-02-14T04:59:31;100606.00;;;11.10
11792;BMP180;5953;52.372;9.918;2024-02-14T05:01:59;100607.00;;;11.40
11792;BMP180;5953;52.372;9.918;2024-02-14T05:04:27;100610.00;;;11.30
11792;BMP180;5953;52.372;9.918;2024-02-14T05:06:56;100609.00;;;11.30
11792;BMP180;5953;52.372;9.918;2024-02-14T05:09:25;100606.00;;;11.30
11792;BMP180;5953;52.372;9.918;2024-02-14T05:11:54;100602.00;;;11.30
11792;BMP180;5953;52.372;9.918;2024-02-14T05:14:22;100595.00;;;11.20
11792;BMP180;5953;52.372;9.918;2024-02-14T05:16:50;100599.00;;;11.40
11792;BMP180;5953;52.372;9.918;2024-02-14T05:19:18;100599.00;;;11.50
11792;BMP180;5953;52.372;9.918;2024-02-14T05:21:49;100599.00;;;11.30
11792;BMP180;5953;52.372;9.918;2024-02-14T05:24:17;100603.00;;;11.50
11792;BMP180;5953;52.372;9.918;2024-02-14T05:26:45;100593.00;;;11.20
11792;BMP180;5953;52.372;9.918;2024-02-14T05:29:14;100604.00;;;11.40
11792;BMP180;5953;52.372;9.918;2024-02-14T05:31:46;100596.00;;;11.30
11792;BMP180;5953;52.372;9.918;2024-02-14T05:34:15;100602.00;;;11.20
11792;BMP180;5953;52.372;9.918;2024-02-14T05:36:43;100602.00;;;10.90
11792;BMP180;5953;52.372;9.918;2024-02-14T05:39:12;100593.00;;;10.70
11792;BMP180;5953;52.372;9.918;2024-02-14T05:41:42;100593.00;;;11.10
11792;BMP180;5953;52.372;9.918;2024-02-14T05:44:10;100593.00;;;11.20
11792;BMP180;5953;52.372;9.918;2024-02-14T05:46:39;100593.00;;;11.10
11792;BMP180;5953;52.372;9.918;2024-02-14T05:49:07;100580.00;;;11.30
11792;BMP180;5953;52.372;9.918;2024-02-14T05:51:35;100588.00;;;11.10
11792;BMP180;5953;52.372;9.918;2024-02-14T05:54:03;100581.00;;;11.40
11792;BMP180;5953;52.372;9.918;2024-02-14T05:56:31;100592.00;;;11.40
11792;BMP180;5953;52.372;9.918;2024-02-14T05:58:59;100582.00;;;11.30
11792;BMP180;5953;52.372;9.918;2024-02-14T06:01:27;100583.00;;;11.40
11792;BMP180;5953;52.372;9.918;2024-02-14T06:03:57;100579.00;;;11.50
11792;BMP180;5953;52.372;9.918;2024-02-14T06:06:24;100587.00;;;11.40
11792;BMP180;5953;52.372;9.918;2024-02-14T06:08:52;100579.00;;;11.60
11792;BMP180;5953;52.372;9.918;2024-02-14T06:11:21;100583.00;;;11.70
11792;BMP180;5953;52.372;9.918;2024-02-14T06:13:49;100582.00;;;11.80
11792;BMP180;5953;52.372;9.918;2024-02-14T06:16:16;100582.00;;;11.70
11792;BMP180;5953;52.372;9.918;2024-02-14T06:18:45;100586.00;;;11.80
11792;BMP180;5953;52.372;9.918;2024-02-14T06:21:14;100591.00;;;11.70
11792;BMP180;5953;52.372;9.918;2024-02-14T06:23:42;100586.00;;;11.70
11792;BMP180;5953;52.372;9.918;2024-02-14T06:26:13;100589.00;;;11.30
11792;BMP180;5953;52.372;9.918;2024-02-14T06:28:41;100599.00;;;11.90
11792;BMP180;5953;52.372;9.918;2024-02-14T06:31:09;100601.00;;;11.90
11792;BMP180;5953;52.372;9.918;2024-02-14T06:33:36;100598.00;;;11.70
11792;BMP180;5953;52.372;9.918;2024-02-14T06:36:05;100594.00;;;11.50
11792;BMP180;5953;52.372;9.918;2024-02-14T06:38:34;100596.00;;;11.50
11792;BMP180;5953;52.372;9.918;2024-02-14T06:41:02;100600.00;;;11.60
11792;BMP180;5953;52.372;9.918;2024-02-14T06:43:30;100606.00;;;11.30
11792;BMP180;5953;52.372;9.918;2024-02-14T06:45:57;100612.00;;;11.50
11792;BMP180;5953;52.372;9.918;2024-02-14T06:48:25;100611.00;;;11.70
11792;BMP180;5953;52.372;9.918;2024-02-14T06:50:53;100615.00;;;11.70
11792;BMP180;5953;52.372;9.918;2024-02-14T06:53:22;100620.00;;;11.80
11792;BMP180;5953;52.372;9.918;2024-02-14T06:55:51;100616.00;;;11.70
11792;BMP180;5953;52.372;9.918;2024-02-14T06:58:19;100613.00;;;11.70
11792;BMP180;5953;52.372;9.918;2024-02-14T07:00:46;100627.00;;;11.70
11792;BMP180;5953;52.372;9.918;2024-02-14T07:03:14;100616.00;;;11.80
11792;BMP180;5953;52.372;9.918;2024-02-14T07:05:42;100624.00;;;11.60
11792;BMP180;5953;52.372;9.918;2024-02-14T07:08:10;100620.00;;;11.70
11792;BMP180;5953;52.372;9.918;2024-02-14T07:10:38;100612.00;;;11.40
11792;BMP180;5953;52.372;9.918;2024-02-14T07:13:07;100624.00;;;11.80
11792;BMP180;5953;52.372;9.918;2024-02-14T07:15:35;100624.00;;;11.50
11792;BMP180;5953;52.372;9.918;2024-02-14T07:18:03;100624.00;;;11.70
11792;BMP180;5953;52.372;9.918;2024-02-14T07:20:31;100610.00;;;11.80
11792;BMP180;5953;52.372;9.918;2024-02-14T07:22:58;100621.00;;;11.80
11792;BMP180;5953;52.372;9.918;2024-02-14T07:25:26;100616.00;;;11.50
11792;BMP180;5953;52.372;9.918;2024-02-14T07:27:54;100615.00;;;11.70
11792;BMP180;5953;52.372;9.918;2024-02-14T07:30:23;100632.00;;;11.70
11792;BMP180;5953;52.372;9.918;2024-02-14T07:32:52;100618.00;;;11.90
11792;BMP180;5953;52.372;9.918;2024-02-14T07:35:20;100633.00;;;11.80
11792;BMP180;5953;52.372;9.918;2024-02-14T07:37:48;100636.00;;;11.40
11792;BMP180;5953;52.372;9.918;2024-02-14T07:40:16;100631.00;;;11.50
11792;BMP180;5953;52.372;9.918;2024-02-14T07:42:44;100634.00;;;11.50
11792;BMP180;5953;52.372;9.918;2024-02-14T07:45:12;100641.00;;;11.50
11792;BMP180;5953;52.372;9.918;2024-02-14T07:47:42;100639.00;;;11.70
11792;BMP180;5953;52.372;9.918;2024-02-14T07:50:10;100640.00;;;11.80
11792;BMP180;5953;52.372;9.918;2024-02-14T07:52:41;100638.00;;;11.90
11792;BMP180;5953;52.372;9.918;2024-02-14T07:55:09;100644.00;;;12.00
11792;BMP180;5953;52.372;9.918;2024-02-14T07:57:38;100637.00;;;12.10
11792;BMP180;5953;52.372;9.918;2024-02-14T08:00:07;100637.00;;;12.00
11792;BMP180;5953;52.372;9.918;2024-02-14T08:02:36;100654.00;;;12.00
11792;BMP180;5953;52.372;9.918;2024-02-14T08:05:06;100651.00;;;11.80
11792;BMP180;5953;52.372;9.918;2024-02-14T08:07:35;100641.00;;;12.00
11792;BMP180;5953;52.372;9.918;2024-02-14T08:10:03;100647.00;;;11.90
11792;BMP180;5953;52.372;9.918;2024-02-14T08:12:32;100640.00;;;11.90
11792;BMP180;5953;52.372;9.918;2024-02-14T08:14:59;100648.00;;;11.80
11792;BMP180;5953;52.372;9.918;2024-02-14T08:17:31;100649.00;;;12.20
11792;BMP180;5953;52.372;9.918;2024-02-14T08:19:59;100640.00;;;11.90
11792;BMP180;5953;52.372;9.918;2024-02-14T08:22:28;100651.00;;;12.10
11792;BMP180;5953;52.372;9.918;2024-02-14T08:24:56;100646.00;;;12.10
11792;BMP180;5953;52.372;9.918;2024-02-14T08:27:24;100648.00;;;12.20
11792;BMP180;5953;52.372;9.918;2024-02-14T08:29:52;100655.00;;;12.10
11792;BMP180;5953;52.372;9.918;2024-02-14T08:32:20;100656.00;;;11.70
11792;BMP180;5953;52.372;9.918;2024-02-14T08:34:50;100657.00;;;12.20
11792;BMP180;5953;52.372;9.918;2024-02-14T08:41:00;100661.00;;;12.50
11792;BMP180;5953;52.372;9.918;2024-02-14T08:43:29;100669.00;;;12.20
11792;BMP180;5953;52.372;9.918;2024-02-14T08:45:57;100665.00;;;12.40
11792;BMP180;5953;52.372;9.918;2024-02-14T08:48:25;100664.00;;;12.30
11792;BMP180;5953;52.372;9.918;2024-02-14T08:50:55;100663.00;;;12.20
11792;BMP180;5953;52.372;9.918;2024-02-14T08:53:24;100665.00;;;12.50
11792;BMP180;5953;52.372;9.918;2024-02-14T08:55:53;100669.00;;;12.30
11792;BMP180;5953;52.372;9.918;2024-02-14T08:58:22;100667.00;;;12.30
11792;BMP180;5953;52.372;9.918;2024-02-14T09:00:50;100676.00;;;12.30
11792;BMP180;5953;52.372;9.918;2024-02-14T09:03:34;100670.00;;;12.30
11792;BMP180;5953;52.372;9.918;2024-02-14T09:06:02;100673.00;;;12.30
11792;BMP180;5953;52.372;9.918;2024-02-14T09:08:31;100678.00;;;12.40
11792;BMP180;5953;52.372;9.918;2024-02-14T09:10:58;100671.00;;;12.30
11792;BMP180;5953;52.372;9.918;2024-02-14T09:13:28;100683.00;;;12.50
11792;BMP180;5953;52.372;9.918;2024-02-14T09:15:57;100677.00;;;12.10
11792;BMP180;5953;52.372;9.918;2024-02-14T09:18:26;100668.00;;;12.30
11792;BMP180;5953;52.372;9.918;2024-02-14T09:20:54;100684.00;;;12.20
11792;BMP180;5953;52.372;9.918;2024-02-14T09:23:23;100670.00;;;12.40
11792;BMP180;5953;52.372;9.918;2024-02-14T09:25:51;100676.00;;;12.50
11792;BMP180;5953;52.372;9.918;2024-02-14T09:28:19;100675.00;;;12.40
11792;BMP180;5953;52.372;9.918;2024-02-14T09:30:48;100673.00;;;12.70
11792;BMP180;5953;52.372;9.918;2024-02-14T09:33:16;100689.00;;;12.50
11792;BMP180;5953;52.372;9.918;2024-02-14T09:35:44;100686.00;;;12.70
11792;BMP180;5953;52.372;9.918;2024-02-14T09:38:14;100688.00;;;12.90
11792;BMP180;5953;52.372;9.918;2024-02-14T09:40:42;100688.00;;;12.80
11792;BMP180;5953;52.372;9.918;2024-02-14T09:43:16;100692.00;;;13.10
11792;BMP180;5953;52.372;9.918;2024-02-14T09:45:46;100688.00;;;12.70
11792;BMP180;5953;52.372;9.918;2024-02-14T09:48:15;100695.00;;;13.00
11792;BMP180;5953;52.372;9.918;2024-02-14T09:50:44;100685.00;;;12.90
11792;BMP180;5953;52.372;9.918;2024-02-14T09:53:14;100688.00;;;13.20
11792;BMP180;5953;52.372;9.918;2024-02-14T09:55:42;100680.00;;;13.10
11792;BMP180;5953;52.372;9.918;2024-02-14T09:58:10;100688.00;;;13.20
11792;BMP180;5953;52.372;9.918;2024-02-14T10:00:38;100687.00;;;13.20
11792;BMP180;5953;52.372;9.918;2024-02-14T10:03:07;100691.00;;;13.50
11792;BMP180;5953;52.372;9.918;2024-02-14T10:05:37;100699.00;;;13.40
11792;BMP180;5953;52.372;9.918;2024-02-14T10:08:05;100710.00;;;13.20
11792;BMP180;5953;52.372;9.918;2024-02-14T10:10:35;100705.00;;;13.50
11792;BMP180;5953;52.372;9.918;2024-02-14T10:13:04;100707.00;;;13.30
11792;BMP180;5953;52.372;9.918;2024-02-14T10:15:32;100702.00;;;13.40
11792;BMP180;5953;52.372;9.918;2024-02-14T10:18:00;100714.00;;;13.50
11792;BMP180;5953;52.372;9.918;2024-02-14T10:20:30;100723.00;;;13.60
11792;BMP180;5953;52.372;9.918;2024-02-14T10:23:03;100714.00;;;13.60
11792;BMP180;5953;52.372;9.918;2024-02-14T10:25:31;100726.00;;;13.50
11792;BMP180;5953;52.372;9.918;2024-02-14T10:28:03;100726.00;;;13.60
11792;BMP180;5953;52.372;9.918;2024-02-14T10:30:32;100732.00;;;13.60
11792;BMP180;5953;52.372;9.918;2024-02-14T10:33:00;100740.00;;;13.70
11792;BMP180;5953;52.372;9.918;2024-02-14T10:35:42;100734.00;;;13.70
11792;BMP180;5953;52.372;9.918;2024-02-14T10:38:11;100741.00;;;13.80
11792;BMP180;5953;52.372;9.918;2024-02-14T10:40:39;100744.00;;;14.10
11792;BMP180;5953;52.372;9.918;2024-02-14T10:43:09;100743.00;;;14.00
11792;BMP180;5953;52.372;9.918;2024-02-14T10:45:37;100745.00;;;14.00
11792;BMP180;5953;52.372;9.918;2024-02-14T10:48:05;100748.00;;;14.10
11792;BMP180;5953;52.372;9.918;2024-02-14T10:50:36;100751.00;;;14.00
11792;BMP180;5953;52.372;9.918;2024-02-14T10:53:13;100755.00;;;14.30
11792;BMP180;5953;52.372;9.918;2024-02-14T10:55:45;100758.00;;;14.40
11792;BMP180;5953;52.372;9.918;2024-02-14T10:58:14;100758.00;;;14.50
11792;BMP180;5953;52.372;9.918;2024-02-14T11:00:43;100754.00;;;14.40
11792;BMP180;5953;52.372;9.918;2024-02-14T11:03:11;100760.00;;;14.30
11792;BMP180;5953;52.372;9.918;2024-02-14T11:05:45;100753.00;;;14.50
11792;BMP180;5953;52.372;9.918;2024-02-14T11:08:15;100758.00;;;14.40
11792;BMP180;5953;52.372;9.918;2024-02-14T11:10:43;100756.00;;;14.10
11792;BMP180;5953;52.372;9.918;2024-02-14T11:13:12;100744.00;;;14.40
11792;BMP180;5953;52.372;9.918;2024-02-14T11:15:44;100755.00;;;14.50
11792;BMP180;5953;52.372;9.918;2024-02-14T11:18:13;100758.00;;;14.00
11792;BMP180;5953;52.372;9.918;2024-02-14T11:20:41;100761.00;;;14.20
11792;BMP180;5953;52.372;9.918;2024-02-14T11:23:22;100763.00;;;14.10
11792;BMP180;5953;52.372;9.918;2024-02-14T11:25:50;100767.00;;;14.50
11792;BMP180;5953;52.372;9.918;2024-02-14T11:28:19;100756.00;;;14.40
11792;BMP180;5953;52.372;9.918;2024-02-14T11:30:47;100761.00;;;14.30
11792;BMP180;5953;52.372;9.918;2024-02-14T11:33:16;100750.00;;;14.30
11792;BMP180;5953;52.372;9.918;2024-02-14T11:35:46;100760.00;;;14.30
11792;BMP180;5953;52.372;9.918;2024-02-14T11:38:14;100766.00;;;14.40
11792;BMP180;5953;52.372;9.918;2024-02-14T11:40:43;100761.00;;;14.40
11792;BMP180;5953;52.372;9.918;2024-02-14T11:43:12;100767.00;;;14.40
11792;BMP180;5953;52.372;9.918;2024-02-14T11:45:41;100771.00;;;14.40
11792;BMP180;5953;52.372;9.918;2024-02-14T11:48:13;100759.00;;;14.50
11792;BMP180;5953;52.372;9.918;2024-02-14T11:50:43;100774.00;;;14.40
11792;BMP180;5953;52.372;9.918;2024-02-14T11:53:11;100780.00;;;14.30
11792;BMP180;5953;52.372;9.918;2024-02-14T11:55:40;100768.00;;;14.30
11792;BMP180;5953;52.372;9.918;2024-02-14T11:58:10;100777.00;;;14.40
11792;BMP180;5953;52.372;9.918;2024-02-14T12:00:40;100770.00;;;14.50
11792;BMP180;5953;52.372;9.918;2024-02-14T12:03:10;100769.00;;;14.50
11792;BMP180;5953;52.372;9.918;2024-02-14T12:05:39;100783.00;;;14.60
11792;BMP180;5953;52.372;9.918;2024-02-14T12:08:08;100790.00;;;14.60
11792;BMP180;5953;52.372;9.918;2024-02-14T12:10:36;100780.00;;;14.50
11792;BMP180;5953;52.372;9.918;2024-02-14T12:13:07;100781.00;;;14.70
11792;BMP180;5953;52.372;9.918;2024-02-14T12:15:40;100782.00;;;14.70
11792;BMP180;5953;52.372;9.918;2024-02-14T12:18:08;100787.00;;;14.60
11792;BMP180;5953;52.372;9.918;2024-02-14T12:20:37;100797.00;;;14.70
11792;BMP180;5953;52.372;9.918;2024-02-14T12:23:05;100789.00;;;14.50
11792;BMP180;5953;52.372;9.918;2024-02-14T12:25:33;100789.00;;;14.60
11792;BMP180;5953;52.372;9.918;2024-02-14T12:28:01;100797.00;;;14.60
11792;BMP180;5953;52.372;9.918;2024-02-14T12:30:43;100802.00;;;14.40
11792;BMP180;5953;52.372;9.918;2024-02-14T12:33:13;100803.00;;;14.30
11792;BMP180;5953;52.372;9.918;2024-02-14T12:35:42;100809.00;;;14.50
11792;BMP180;5953;52.372;9.918;2024-02-14T12:38:12;100800.00;;;14.40
11792;BMP180;5953;52.372;9.918;2024-02-14T12:40:41;100802.00;;;14.40
11792;BMP180;5953;52.372;9.918;2024-02-14T12:43:11;100811.00;;;14.40
11792;BMP180;5953;52.372;9.918;2024-02-14T12:45:39;100810.00;;;14.50
11792;BMP180;5953;52.372;9.918;2024-02-14T12:48:10;100802.00;;;14.30
11792;BMP180;5953;52.372;9.918;2024-02-14T12:50:40;100804.00;;;14.80
11792;BMP180;5953;52.372;9.918;2024-02-14T12:53:14;100801.00;;;14.80
11792;BMP180;5953;52.372;9.918;2024-02-14T12:55:42;100791.00;;;14.90
11792;BMP180;5953;52.372;9.918;2024-02-14T12:58:10;100804.00;;;14.70
11792;BMP180;5953;52.372;9.918;2024-02-14T13:00:37;100800.00;;;14.90
11792;BMP180;5953;52.372;9.918;2024-02-14T13:03:05;100806.00;;;14.40
11792;BMP180;5953;52.372;9.918;2024-02-14T13:05:36;100815.00;;;14.70
11792;BMP180;5953;52.372;9.918;2024-02-14T13:08:04;100808.00;;;15.00
11792;BMP180;5953;52.372;9.918;2024-02-14T13:10:32;100807.00;;;15.10
11792;BMP180;5953;52.372;9.918;2024-02-14T13:13:00;100810.00;;;14.70
11792;BMP180;5953;52.372;9.918;2024-02-14T13:15:28;100800.00;;;15.00
11792;BMP180;5953;52.372;9.918;2024-02-14T13:17:56;100819.00;;;15.10
11792;BMP180;5953;52.372;9.918;2024-02-14T13:20:26;100808.00;;;15.20
11792;BMP180;5953;52.372;9.918;2024-02-14T13:22:56;100797.00;;;15.00
11792;BMP180;5953;52.372;9.918;2024-02-14T13:25:24;100797.00;;;15.10
11792;BMP180;5953;52.372;9.918;2024-02-14T13:27:52;100802.00;;;15.10
11792;BMP180;5953;52.372;9.918;2024-02-14T13:30:21;100797.00;;;14.80
11792;BMP180;5953;52.372;9.918;2024-02-14T13:32:49;100806.00;;;14.90
11792;BMP180;5953;52.372;9.918;2024-02-14T13:35:17;100813.00;;;14.60
11792;BMP180;5953;52.372;9.918;2024-02-14T13:37:45;100806.00;;;14.90
11792;BMP180;5953;52.372;9.918;2024-02-14T13:40:16;100804.00;;;15.30
11792;BMP180;5953;52.372;9.918;2024-02-14T13:42:44;100807.00;;;14.90
11792;BMP180;5953;52.372;9.918;2024-02-14T13:45:12;100805.00;;;15.10
11792;BMP180;5953;52.372;9.918;2024-02-14T13:47:41;100796.00;;;15.20
11792;BMP180;5953;52.372;9.918;2024-02-14T13:50:10;100801.00;;;14.80
11792;BMP180;5953;52.372;9.918;2024-02-14T13:52:39;100805.00;;;15.20
11792;BMP180;5953;52.372;9.918;2024-02-14T13:55:11;100802.00;;;15.40
11792;BMP180;5953;52.372;9.918;2024-02-14T13:57:41;100800.00;;;15.60
11792;BMP180;5953;52.372;9.918;2024-02-14T14:00:13;100804.00;;;15.50
11792;BMP180;5953;52.372;9.918;2024-02-14T14:02:43;100796.00;;;15.20
11792;BMP180;5953;52.372;9.918;2024-02-14T14:05:12;100813.00;;;15.30
11792;BMP180;5953;52.372;9.918;2024-02-14T14:07:46;100801.00;;;14.90
11792;BMP180;5953;52.372;9.918;2024-02-14T14:10:25;100796.00;;;15.00
11792;BMP180;5953;52.372;9.918;2024-02-14T14:12:57;100807.00;;;15.10
11792;BMP180;5953;52.372;9.918;2024-02-14T14:15:27;100810.00;;;15.50
11792;BMP180;5953;52.372;9.918;2024-02-14T14:18:01;100802.00;;;15.10
11792;BMP180;5953;52.372;9.918;2024-02-14T14:20:35;100817.00;;;15.20
11792;BMP180;5953;52.372;9.918;2024-02-14T14:23:06;100820.00;;;15.10